Time;durP1;ratioP1;P1;durP2;ratioP2;P2;SDS_P1;SDS_P2;PMS_P1;PMS_P2;Temp;Humidity;BMP_temperature;BMP_pressure;BME280_temperature;BME280_humidity;BME280_pressure;Samples;Min_cycle;Max_cycle;Signal;HPM_P1;HPM_P2
2022/12/17 13:06:11;;;;;;;62.95;57.53;;;;;;;11.51;100.00;101025.25;5019178;28;20049;-87
2022/12/17 13:08:38;;;;;;;59.55;54.75;;;;;;;11.36;100.00;101021.97;5019021;28;20089;-84
2022/12/17 13:11:27;;;;;;;59.63;54.65;;;;;;;11.60;100.00;101029.34;5018353;28;20049;-86
2022/12/17 13:13:59;;;;;;;59.90;54.97;;;;;;;11.56;100.00;100988.22;5017834;28;20446;-86
2022/12/17 13:16:49;;;;;;;64.10;58.50;;;;;;;11.59;100.00;100968.34;5018046;28;20078;-86
2022/12/17 13:19:32;;;;;;;59.00;54.15;;;;;;;11.58;100.00;100916.97;5017412;28;20119;-85
2022/12/17 13:22:12;;;;;;;57.60;53.10;;;;;;;11.55;100.00;101033.63;5017401;28;20123;-85
2022/12/17 13:24:39;;;;;;;55.10;51.00;;;;;;;11.59;100.00;101025.06;5016458;28;20483;-85
2022/12/17 13:27:31;;;;;;;59.13;54.22;;;;;;;11.50;100.00;101020.13;5017146;28;20119;-86
2022/12/17 13:29:59;;;;;;;56.95;52.47;;;;;;;11.76;100.00;101060.03;5016766;28;20137;-87
2022/12/17 13:32:31;;;;;;;59.30;54.30;;;;;;;12.09;100.00;101054.69;5017774;28;20548;-87
2022/12/17 13:35:17;;;;;;;58.23;53.57;;;;;;;12.03;100.00;101047.53;5017320;28;20053;-90
2022/12/17 13:37:53;;;;;;;56.85;52.47;;;;;;;11.89;100.00;101052.09;5017111;28;20054;-87
2022/12/17 13:40:33;;;;;;;55.33;51.17;;;;;;;12.09;100.00;101054.69;5017194;28;20049;-84
2022/12/17 13:42:59;;;;;;;55.38;51.17;;;;;;;12.32;100.00;101054.25;5016958;28;20120;-85
2022/12/17 13:45:27;;;;;;;55.47;51.13;;;;;;;12.46;100.00;101041.69;5017429;28;20054;-85
2022/12/17 13:47:57;;;;;;;56.22;51.83;;;;;;;12.51;100.00;101036.56;5017779;28;20041;-85
2022/12/17 13:50:26;;;;;;;55.67;51.40;;;;;;;12.31;100.00;101052.59;5017204;28;20046;-88
2022/12/17 13:52:55;;;;;;;55.53;51.40;;;;;;;12.21;100.00;101057.56;5016688;28;20104;-86
2022/12/17 13:55:24;;;;;;;55.67;51.55;;;;;;;12.00;100.00;101058.59;5017229;28;20096;-85
2022/12/17 13:57:52;;;;;;;55.75;51.45;;;;;;;12.24;100.00;101066.97;5016504;28;20471;-85
2022/12/17 14:00:22;;;;;;;51.80;48.08;;;;;;;11.33;100.00;101078.22;5017023;28;20053;-84
2022/12/17 14:02:49;;;;;;;53.05;49.15;;;;;;;11.51;100.00;101075.78;5017329;28;20054;-87
2022/12/17 14:05:26;;;;;;;53.25;49.30;;;;;;;11.65;100.00;101088.09;5016385;28;20046;-85
2022/12/17 14:07:58;;;;;;;53.40;49.35;;;;;;;11.62;100.00;101095.66;5016885;28;20478;-88
2022/12/17 14:10:26;;;;;;;54.87;50.97;;;;;;;11.70;100.00;101098.91;5016480;28;20112;-87
2022/12/17 14:13:02;;;;;;;56.72;52.63;;;;;;;11.64;100.00;101105.03;5016606;28;20053;-85
2022/12/17 14:15:30;;;;;;;55.28;51.28;;;;;;;11.25;100.00;101105.78;5016654;28;20077;-85
2022/12/17 14:17:58;;;;;;;56.17;52.13;;;;;;;11.27;100.00;101109.09;5016116;28;20115;-85
2022/12/17 14:20:29;;;;;;;54.72;50.65;;;;;;;11.82;100.00;101112.44;5016395;28;20082;-86
2022/12/17 14:23:01;;;;;;;56.03;52.13;;;;;;;11.46;100.00;101110.97;5017284;28;20145;-84
2022/12/17 14:25:34;;;;;;;54.17;50.22;;;;;;;11.11;100.00;101114.78;5017219;28;20106;-87
2022/12/17 14:28:04;;;;;;;55.55;51.28;;;;;;;11.59;100.00;101112.00;5016501;28;20045;-85
2022/12/17 14:30:38;;;;;;;55.78;51.60;;;;;;;11.44;100.00;101128.16;5016320;28;20045;-85
2022/12/17 14:33:05;;;;;;;54.17;50.33;;;;;;;11.31;100.00;101134.25;5016052;28;20104;-86
2022/12/17 14:35:36;;;;;;;57.10;53.00;;;;;;;10.17;100.00;101141.81;5015333;28;20046;-85
2022/12/17 14:38:04;;;;;;;56.38;52.17;;;;;;;11.13;100.00;101150.75;5016436;28;20475;-87
2022/12/17 14:40:31;;;;;;;57.95;53.45;;;;;;;10.46;100.00;101154.91;5016235;28;20081;-86
2022/12/17 14:43:00;;;;;;;56.58;52.25;;;;;;;10.38;100.00;101149.75;5016035;28;20462;-86
2022/12/17 14:45:28;;;;;;;56.70;52.40;;;;;;;10.90;100.00;101147.59;5015869;28;20045;-85
2022/12/17 14:47:58;;;;;;;58.05;53.47;;;;;;;9.88;100.00;101143.63;5015900;28;20049;-85
2022/12/17 14:50:29;;;;;;;56.78;52.38;;;;;;;9.42;100.00;101151.94;5018668;28;20053;-86
2022/12/17 14:52:57;;;;;;;57.30;53.10;;;;;;;8.91;100.00;101160.72;5035591;28;20564;-87
2022/12/17 14:55:37;;;;;;;57.83;53.42;;;;;;;9.18;100.00;101155.75;5035499;28;20057;-86
2022/12/17 14:58:21;;;;;;;57.58;53.08;;;;;;;9.74;100.00;101174.53;5036021;28;20049;-86
2022/12/17 15:00:52;;;;;;;59.80;54.67;;;;;;;9.52;100.00;101163.06;5035608;28;20045;-86
2022/12/17 15:03:22;;;;;;;57.63;53.10;;;;;;;9.61;100.00;101177.03;5035250;28;20041;-87
2022/12/17 15:05:52;;;;;;;59.55;55.08;;;;;;;10.33;100.00;101184.03;5035493;28;20053;-84
2022/12/17 15:08:20;;;;;;;59.47;54.70;;;;;;;10.37;100.00;101193.25;5030789;28;20118;-86
2022/12/17 15:13:37;;;;;;;59.65;54.75;;;;;;;9.44;100.00;101195.00;5132913;27;20391;-86
2022/12/17 15:16:23;;;;;;;59.92;54.97;;;;;;;8.99;100.00;101204.84;5133092;28;20457;-86
2022/12/17 15:18:49;;;;;;;59.80;55.20;;;;;;;8.86;100.00;101208.13;5132201;28;20087;-86
2022/12/17 15:21:18;;;;;;;62.10;57.13;;;;;;;8.82;100.00;101209.50;5132342;28;20108;-86
2022/12/17 15:23:46;;;;;;;63.85;58.80;;;;;;;8.71;100.00;101210.78;5132135;28;20048;-85
2022/12/17 15:26:14;;;;;;;66.68;60.90;;;;;;;8.70;100.00;101210.94;5133205;28;20046;-86
2022/12/17 15:31:20;;;;;;;68.63;62.90;;;;;;;8.68;100.00;101218.25;5134205;27;20374;-85
2022/12/17 15:33:47;;;;;;;73.07;66.78;;;;;;;8.58;100.00;101237.03;5134322;27;20135;-87
2022/12/17 15:36:14;;;;;;;69.53;63.47;;;;;;;8.68;100.00;101257.97;5134158;28;20051;-87
2022/12/17 15:38:41;;;;;;;71.10;64.10;;;;;;;8.83;100.00;101250.84;5134558;27;20044;-85
2022/12/17 15:43:49;;;;;;;71.60;65.07;;;;;;;8.54;100.00;101259.59;5132647;28;20051;-87
2022/12/17 15:46:16;;;;;;;57.47;52.47;;;;;;;8.88;100.00;101274.16;5134960;28;20116;-87
2022/12/17 15:48:45;;;;;;;58.33;53.63;;;;;;;8.90;100.00;101275.63;5134742;28;20055;-85
2022/12/17 15:51:12;;;;;;;59.17;53.90;;;;;;;8.72;100.00;101280.47;5133877;28;20058;-86
2022/12/17 15:53:39;;;;;;;58.78;53.53;;;;;;;8.70;100.00;101285.91;5134922;28;20054;-84
2022/12/17 15:56:06;;;;;;;56.08;51.35;;;;;;;8.95;100.00;101306.88;5133929;27;20123;-85
2022/12/17 15:58:33;;;;;;;53.22;48.95;;;;;;;8.69;100.00;101318.72;5134037;28;20047;-85
2022/12/17 16:01:00;;;;;;;52.95;48.95;;;;;;;8.37;100.00;101314.47;5133626;28;20372;-87
2022/12/17 16:03:27;;;;;;;64.22;58.10;;;;;;;8.39;100.00;101332.84;5132722;27;20051;-84
2022/12/17 16:05:55;;;;;;;60.38;55.10;;;;;;;8.49;100.00;101321.00;5132805;27;20124;-83
2022/12/17 16:08:23;;;;;;;56.55;52.15;;;;;;;8.51;100.00;101334.09;5132599;27;20108;-86
2022/12/17 16:10:50;;;;;;;58.22;52.88;;;;;;;8.34;100.00;101327.22;5134024;27;20051;-85
2022/12/17 16:13:18;;;;;;;56.67;51.83;;;;;;;8.48;100.00;101337.91;5137091;27;20044;-86
2022/12/17 16:15:44;;;;;;;52.65;48.38;;;;;;;8.39;100.00;101349.56;5132435;27;20047;-87
2022/12/17 16:18:11;;;;;;;52.63;48.20;;;;;;;8.42;100.00;101354.50;5131980;27;20043;-87
2022/12/17 16:20:38;;;;;;;52.15;47.78;;;;;;;8.40;100.00;101359.13;5132926;27;20497;-84
2022/12/17 16:23:06;;;;;;;54.92;50.30;;;;;;;8.24;100.00;101367.97;5132637;27;20055;-86
2022/12/17 16:25:33;;;;;;;55.40;50.33;;;;;;;8.23;100.00;101366.34;5132544;27;20437;-84
2022/12/17 16:28:00;;;;;;;62.95;57.75;;;;;;;8.09;100.00;101379.47;5133188;27;20104;-85
2022/12/17 16:30:26;;;;;;;52.55;48.30;;;;;;;8.07;100.00;101379.63;5132388;27;20055;-84
2022/12/17 16:32:53;;;;;;;56.53;51.63;;;;;;;8.07;100.00;101384.94;5132742;27;20112;-84
2022/12/17 16:35:20;;;;;;;58.58;53.10;;;;;;;8.14;100.00;101388.56;5132589;27;20047;-87
2022/12/17 16:37:47;;;;;;;56.20;51.25;;;;;;;8.12;100.00;101392.38;5132228;27;20054;-84
2022/12/17 16:40:15;;;;;;;64.53;59.13;;;;;;;8.12;100.00;101387.91;5132077;27;20058;-85
2022/12/17 16:42:42;;;;;;;53.53;48.75;;;;;;;8.00;100.00;101408.63;5118663;27;20047;-86
2022/12/17 16:45:09;;;;;;;62.35;56.50;;;;;;;8.06;100.00;101425.63;5118514;28;20047;-86
2022/12/17 16:47:36;;;;;;;63.13;57.60;;;;;;;8.02;100.00;101434.91;5118805;28;20048;-84
2022/12/17 16:50:03;;;;;;;63.85;57.50;;;;;;;7.99;100.00;101441.38;5118425;28;20055;-89
2022/12/17 16:52:30;;;;;;;64.88;58.38;;;;;;;8.04;100.00;101430.25;5118409;28;20521;-86
2022/12/17 16:54:57;;;;;;;64.72;58.17;;;;;;;7.97;100.00;101442.53;5118064;28;20471;-85
2022/12/17 16:57:25;;;;;;;68.45;62.17;;;;;;;8.03;100.00;101442.66;5119041;28;20040;-84
2022/12/17 16:59:52;;;;;;;65.57;58.97;;;;;;;7.93;100.00;101450.00;5118488;28;20055;-86
2022/12/17 17:02:18;;;;;;;71.10;63.78;;;;;;;8.04;100.00;101462.00;5116938;28;20044;-86
2022/12/17 17:04:46;;;;;;;75.63;67.72;;;;;;;8.12;100.00;101463.81;5119520;28;20151;-86
2022/12/17 17:07:13;;;;;;;75.53;66.78;;;;;;;8.20;100.00;101476.97;5118788;28;20461;-85
2022/12/17 17:09:40;;;;;;;78.45;71.03;;;;;;;8.18;100.00;101471.88;5117624;28;20108;-85
2022/12/17 17:12:07;;;;;;;84.97;76.07;;;;;;;8.26;100.00;101461.28;5117610;28;20051;-84
2022/12/17 17:14:36;;;;;;;88.38;79.95;;;;;;;8.31;100.00;101462.56;5117485;28;20044;-85
2022/12/17 17:17:02;;;;;;;84.53;76.28;;;;;;;8.20;100.00;101469.91;5117572;28;20544;-85
2022/12/17 17:19:29;;;;;;;89.80;81.10;;;;;;;8.18;100.00;101465.75;5118662;28;20469;-84
2022/12/17 17:21:56;;;;;;;90.75;81.38;;;;;;;8.18;100.00;101476.34;5117646;28;20124;-85
2022/12/17 17:24:24;;;;;;;83.50;74.88;;;;;;;8.29;100.00;101481.28;5117886;28;20112;-85
2022/12/17 17:27:08;;;;;;;83.28;75.85;;;;;;;8.20;100.00;101488.41;5112776;27;20392;-88
2022/12/17 17:29:34;;;;;;;85.10;77.50;;;;;;;8.39;100.00;101494.31;5112448;28;20044;-85
2022/12/17 17:32:01;;;;;;;84.00;76.18;;;;;;;8.33;100.00;101506.38;5112430;28;20048;-86
2022/12/17 17:34:28;;;;;;;85.45;77.43;;;;;;;8.35;100.00;101500.91;5112699;28;20113;-85
2022/12/17 17:36:55;;;;;;;85.35;77.70;;;;;;;8.31;100.00;101499.63;5112488;28;20052;-86
2022/12/17 17:39:21;;;;;;;86.47;78.03;;;;;;;8.27;100.00;101510.53;5112646;28;20044;-87
2022/12/17 17:41:48;;;;;;;90.35;82.15;;;;;;;8.37;100.00;101512.97;5112178;28;20040;-87
2022/12/17 17:44:16;;;;;;;84.63;77.40;;;;;;;8.29;100.00;101513.03;5112185;28;20044;-88
2022/12/17 17:46:44;;;;;;;84.20;76.07;;;;;;;8.22;100.00;101518.16;5112090;28;20104;-84
2022/12/17 17:49:11;;;;;;;80.20;72.57;;;;;;;8.20;100.00;101536.06;5112182;28;20051;-86
2022/12/17 17:51:40;;;;;;;78.72;71.07;;;;;;;8.26;100.00;101513.38;5111789;28;20480;-85
2022/12/17 17:54:07;;;;;;;88.43;80.07;;;;;;;8.18;100.00;101513.41;5112277;28;20090;-86
2022/12/17 17:56:36;;;;;;;92.38;84.35;;;;;;;8.18;100.00;101516.88;5111677;28;20125;-86
2022/12/17 17:59:06;;;;;;;86.60;78.88;;;;;;;8.07;100.00;101525.16;5111867;28;20597;-84
2022/12/17 18:01:36;;;;;;;79.75;72.50;;;;;;;8.14;100.00;101526.16;5111823;28;20547;-85
2022/12/17 18:04:05;;;;;;;97.55;89.03;;;;;;;8.02;100.00;101530.97;5112411;28;20051;-85
2022/12/17 18:06:32;;;;;;;91.70;83.53;;;;;;;7.88;100.00;101529.00;5112257;28;20116;-84
2022/12/17 18:09:00;;;;;;;91.15;83.00;;;;;;;7.98;100.00;101534.13;5112407;28;20075;-85
2022/12/17 18:11:29;;;;;;;96.60;87.68;;;;;;;7.99;100.00;101544.53;5112015;28;20112;-84
2022/12/17 18:13:55;;;;;;;92.82;84.30;;;;;;;7.92;100.00;101537.44;5112173;28;20052;-86
2022/12/17 18:16:27;;;;;;;94.88;85.88;;;;;;;7.90;100.00;101542.91;5112048;28;20047;-86
2022/12/17 18:18:58;;;;;;;93.77;85.33;;;;;;;7.87;100.00;101543.25;5112397;28;20055;-85
2022/12/17 18:21:26;;;;;;;98.75;89.30;;;;;;;7.88;100.00;101544.06;5111644;28;20048;-85
2022/12/17 18:23:58;;;;;;;95.45;86.47;;;;;;;7.74;100.00;101542.91;5111267;28;20055;-88
2022/12/17 18:26:26;;;;;;;97.57;88.65;;;;;;;7.75;100.00;101550.69;5111455;28;20139;-88
2022/12/17 18:28:53;;;;;;;97.00;87.68;;;;;;;7.78;100.00;101565.41;5111353;28;20120;-86
2022/12/17 18:31:23;;;;;;;105.93;96.60;;;;;;;7.82;100.00;101564.06;5111437;28;20105;-85
2022/12/17 18:33:52;;;;;;;98.50;88.95;;;;;;;7.78;100.00;101563.59;5111391;28;20044;-85
2022/12/17 18:36:23;;;;;;;94.97;85.82;;;;;;;7.84;100.00;101559.44;5110388;28;20774;-84
2022/12/17 18:38:55;;;;;;;103.17;93.30;;;;;;;7.70;100.00;101578.63;5097678;28;20060;-85
2022/12/17 18:44:07;;;;;;;108.60;98.18;;;;;;;7.50;100.00;101571.03;5097515;28;20059;-87
2022/12/17 18:46:34;;;;;;;105.82;95.82;;;;;;;7.39;100.00;101557.31;5097552;28;20052;-84
2022/12/17 18:49:03;;;;;;;105.93;96.07;;;;;;;7.37;100.00;101578.59;5097458;28;20117;-86
2022/12/17 18:51:31;;;;;;;101.35;91.40;;;;;;;7.40;100.00;101586.22;5097798;28;20109;-84
2022/12/17 18:54:00;;;;;;;249.68;168.07;;;;;;;7.28;100.00;101585.69;5097330;28;20125;-85
2022/12/17 18:56:28;;;;;;;112.25;100.20;;;;;;;7.23;100.00;101595.94;5097138;28;20060;-87
2022/12/17 18:58:55;;;;;;;95.57;86.53;;;;;;;7.18;100.00;101606.16;5096788;28;20040;-87
2022/12/17 19:01:25;;;;;;;107.00;96.85;;;;;;;7.20;100.00;101611.28;5097265;28;20172;-85
2022/12/17 19:03:53;;;;;;;110.05;99.90;;;;;;;7.18;100.00;101611.44;5097167;28;20044;-85
2022/12/17 19:06:21;;;;;;;97.68;88.55;;;;;;;7.17;100.00;101612.44;5097077;28;20043;-84
2022/12/17 19:08:49;;;;;;;91.70;83.85;;;;;;;7.27;100.00;101607.00;5097320;28;20048;-86
2022/12/17 19:11:20;;;;;;;101.75;92.75;;;;;;;7.23;100.00;101619.72;5097117;28;20044;-85
2022/12/17 19:13:50;;;;;;;94.10;85.88;;;;;;;7.28;100.00;101611.31;5096821;28;20501;-83
2022/12/17 19:16:19;;;;;;;93.68;85.63;;;;;;;7.20;100.00;101627.13;5097235;28;20044;-88
2022/12/17 19:18:51;;;;;;;96.75;88.20;;;;;;;7.20;100.00;101624.47;5096890;28;20055;-85
2022/12/17 19:21:18;;;;;;;99.25;90.25;;;;;;;7.16;100.00;101631.09;5096654;28;20064;-85
2022/12/17 19:23:46;;;;;;;106.70;96.68;;;;;;;7.11;100.00;101628.94;5097404;28;20048;-87
2022/12/17 19:26:15;;;;;;;111.85;102.13;;;;;;;7.06;100.00;101633.88;5096244;28;20121;-84
2022/12/17 19:28:44;;;;;;;106.72;97.40;;;;;;;7.00;100.00;101627.41;5096908;28;20518;-83
2022/12/17 19:31:11;;;;;;;95.13;86.63;;;;;;;6.97;100.00;101632.19;5096502;28;20044;-86
2022/12/17 19:33:39;;;;;;;102.20;92.53;;;;;;;6.97;100.00;101635.66;5097179;28;20047;-84
2022/12/17 19:36:08;;;;;;;105.82;96.03;;;;;;;6.94;100.00;101632.50;5096467;28;20044;-87
2022/12/17 19:38:36;;;;;;;96.95;88.13;;;;;;;6.90;100.00;101632.00;5096689;28;20102;-84
2022/12/17 19:41:04;;;;;;;114.38;103.28;;;;;;;6.91;100.00;101644.22;5096339;28;20048;-84
2022/12/17 19:43:33;;;;;;;100.55;90.82;;;;;;;6.84;100.00;101630.81;5096093;28;20044;-84
2022/12/17 19:46:05;;;;;;;99.93;90.70;;;;;;;6.85;100.00;101632.47;5096375;28;20089;-85
2022/12/17 19:48:33;;;;;;;102.95;93.35;;;;;;;6.87;100.00;101641.06;5095294;28;20052;-84
2022/12/17 19:51:00;;;;;;;103.10;93.25;;;;;;;6.85;100.00;101645.69;5096049;28;20533;-85
2022/12/17 19:53:28;;;;;;;142.65;127.40;;;;;;;6.88;100.00;101657.75;5096182;28;20464;-87
2022/12/17 19:55:56;;;;;;;107.28;96.97;;;;;;;6.85;100.00;101660.69;5096347;28;20056;-88
2022/12/17 19:58:23;;;;;;;111.47;100.72;;;;;;;6.88;100.00;101665.66;5096003;28;20059;-84
2022/12/17 20:00:52;;;;;;;108.55;98.00;;;;;;;6.76;100.00;101672.22;5095780;28;20063;-86
2022/12/17 20:03:19;;;;;;;106.95;96.78;;;;;;;6.72;100.00;101676.97;5096241;28;20044;-85
2022/12/17 20:05:47;;;;;;;111.43;100.65;;;;;;;6.76;100.00;101678.31;5096013;28;20106;-85
2022/12/17 20:08:14;;;;;;;289.23;210.55;;;;;;;6.64;100.00;101684.84;5095593;28;20472;-85
2022/12/17 20:10:41;;;;;;;139.55;124.07;;;;;;;6.74;100.00;101684.72;5095359;28;20052;-86
2022/12/17 20:13:08;;;;;;;120.97;109.45;;;;;;;6.38;100.00;101683.06;5095563;28;20052;-87
2022/12/17 20:15:34;;;;;;;102.18;92.80;;;;;;;6.87;100.00;101693.91;5095077;28;20044;-86
2022/12/17 20:18:03;;;;;;;120.80;108.15;;;;;;;6.51;100.00;101705.56;5095174;28;20462;-85
2022/12/17 20:20:29;;;;;;;92.47;84.60;;;;;;;6.88;100.00;101716.66;5095413;28;20052;-87
2022/12/17 20:22:56;;;;;;;87.53;80.45;;;;;;;7.00;100.00;101706.66;5096312;28;20052;-84
2022/12/17 20:25:23;;;;;;;87.22;80.22;;;;;;;7.00;100.00;101714.56;5095533;28;20113;-86
2022/12/17 20:27:50;;;;;;;84.63;78.22;;;;;;;7.09;100.00;101713.63;5095432;28;20048;-84
2022/12/17 20:30:17;;;;;;;79.97;73.68;;;;;;;7.04;100.00;101715.09;5095928;28;20044;-84
2022/12/17 20:32:43;;;;;;;77.25;71.35;;;;;;;7.09;100.00;101708.34;5094680;28;20480;-85
2022/12/17 20:35:12;;;;;;;75.82;69.90;;;;;;;7.10;100.00;101712.63;5095611;28;20051;-85
2022/12/17 20:37:38;;;;;;;74.05;68.35;;;;;;;7.28;100.00;101722.28;5095384;28;20063;-85
2022/12/17 20:40:06;;;;;;;69.28;64.22;;;;;;;7.22;100.00;101726.38;5095112;28;20040;-85
2022/12/17 20:42:33;;;;;;;70.05;64.25;;;;;;;7.26;100.00;101740.97;5095830;28;20450;-85
2022/12/17 20:45:00;;;;;;;63.85;59.08;;;;;;;7.34;100.00;101727.75;5095816;28;20048;-85
2022/12/17 20:47:26;;;;;;;65.65;60.30;;;;;;;7.26;100.00;101740.97;5095203;28;20132;-83
2022/12/17 20:49:53;;;;;;;64.25;59.05;;;;;;;7.17;100.00;101747.19;5095217;28;20525;-84
2022/12/17 20:52:21;;;;;;;61.38;56.80;;;;;;;7.23;100.00;101746.56;5095682;28;20056;-85
2022/12/17 20:54:49;;;;;;;61.40;56.70;;;;;;;7.19;100.00;101742.56;5094773;28;20585;-85
2022/12/17 20:57:15;;;;;;;57.60;53.00;;;;;;;7.39;100.00;101748.44;5095656;28;20134;-87
2022/12/17 20:59:42;;;;;;;57.90;53.67;;;;;;;7.38;100.00;101756.50;5093183;28;20518;-86
2022/12/17 21:02:10;;;;;;;56.45;52.15;;;;;;;7.55;100.00;101755.59;5095109;28;20047;-85
2022/12/17 21:04:36;;;;;;;58.20;53.55;;;;;;;7.42;100.00;101750.75;5095453;28;20480;-88
2022/12/17 21:07:03;;;;;;;58.15;53.22;;;;;;;7.32;100.00;101761.47;5094930;28;20396;-84
2022/12/17 21:09:31;;;;;;;57.72;53.22;;;;;;;7.23;100.00;101757.13;5095073;28;20207;-83
2022/12/17 21:11:58;;;;;;;58.90;54.30;;;;;;;7.24;100.00;101763.25;5094747;28;20217;-84
2022/12/17 21:14:25;;;;;;;60.25;55.63;;;;;;;7.32;100.00;101765.91;5095249;28;20113;-85
2022/12/17 21:16:52;;;;;;;61.28;56.47;;;;;;;7.46;100.00;101767.13;5094841;28;20055;-87
2022/12/17 21:19:19;;;;;;;58.38;53.88;;;;;;;7.53;100.00;101762.84;5094971;28;20051;-85
2022/12/17 21:21:46;;;;;;;58.42;53.75;;;;;;;7.29;100.00;101745.06;5095145;28;20051;-88
2022/12/17 21:24:12;;;;;;;59.90;55.30;;;;;;;7.49;100.00;101758.88;5095107;28;20104;-87
2022/12/17 21:26:42;;;;;;;59.03;54.42;;;;;;;7.30;100.00;101768.72;5094419;28;20172;-84
2022/12/17 21:29:10;;;;;;;58.58;54.08;;;;;;;7.49;100.00;101770.28;5094904;28;20101;-84
2022/12/17 21:31:39;;;;;;;59.38;54.78;;;;;;;7.22;100.00;101776.59;5094895;28;20460;-87
2022/12/17 21:34:10;;;;;;;55.95;51.80;;;;;;;7.23;100.00;101791.50;5094584;28;20055;-84
2022/12/17 21:36:36;;;;;;;58.03;53.33;;;;;;;7.29;100.00;101788.22;5094901;28;20044;-85
2022/12/17 21:39:06;;;;;;;59.38;54.70;;;;;;;7.27;100.00;101782.25;5095438;28;20048;-84
2022/12/17 21:41:35;;;;;;;55.42;51.03;;;;;;;7.29;100.00;101784.72;5094404;28;20048;-86
2022/12/17 21:44:06;;;;;;;57.88;53.35;;;;;;;7.32;100.00;101790.53;5095267;28;20391;-84
2022/12/17 21:46:33;;;;;;;55.92;51.42;;;;;;;7.17;100.00;101792.13;5094438;28;20069;-85
2022/12/17 21:49:01;;;;;;;55.53;51.20;;;;;;;7.35;100.00;101778.78;5095066;28;20052;-84
2022/12/17 21:51:29;;;;;;;56.00;51.80;;;;;;;7.36;100.00;101774.38;5094952;28;20056;-86
2022/12/17 21:53:58;;;;;;;58.00;53.40;;;;;;;7.46;100.00;101777.69;5095217;28;20113;-85
2022/12/17 21:56:25;;;;;;;59.22;54.63;;;;;;;7.21;100.00;101777.59;5094688;28;20052;-84
2022/12/17 21:58:57;;;;;;;58.10;53.55;;;;;;;7.14;100.00;101794.22;5094737;28;20125;-84
2022/12/17 22:01:30;;;;;;;60.72;56.03;;;;;;;7.24;100.00;101787.84;5094753;28;20056;-84
2022/12/17 22:03:57;;;;;;;;;;;;;;;7.09;100.00;101792.06;5095215;28;20062;-84
2022/12/17 22:06:25;;;;;;;58.78;53.88;;;;;;;7.09;100.00;101797.34;5094499;28;20348;-84
2022/12/17 22:08:52;;;;;;;61.10;56.15;;;;;;;6.96;100.00;101789.84;5094456;28;20059;-86
2022/12/17 22:11:21;;;;;;;65.32;60.10;;;;;;;6.74;100.00;101804.38;5095300;28;20048;-83
2022/12/17 22:14:05;;;;;;;64.60;59.20;;;;;;;6.96;100.00;101818.06;5097740;28;20476;-88
2022/12/17 22:16:37;;;;;;;62.17;57.13;;;;;;;6.71;100.00;101811.78;5097731;28;20059;-84
2022/12/17 22:19:04;;;;;;;;;;;;;;;6.81;100.00;101815.16;5099557;28;20052;-84
2022/12/17 22:21:34;;;;;;;62.75;57.60;;;;;;;6.82;100.00;101822.09;5098013;28;19931;-85
2022/12/17 22:24:01;;;;;;;69.00;63.42;;;;;;;6.84;100.00;101813.03;5098056;28;20109;-84
2022/12/17 22:26:28;;;;;;;64.97;59.65;;;;;;;6.92;100.00;101830.75;5098177;28;20113;-88
2022/12/17 22:28:55;;;;;;;59.85;55.13;;;;;;;7.03;100.00;101837.59;5098029;28;20048;-84
2022/12/17 22:34:11;;;;;;;59.97;55.15;;;;;;;6.71;100.00;101846.09;5067571;28;20059;-85
2022/12/17 22:36:38;;;;;;;62.15;56.97;;;;;;;6.73;100.00;101844.97;5097780;28;20525;-86
2022/12/17 22:39:07;;;;;;;65.43;59.88;;;;;;;6.76;100.00;101847.31;5097761;28;20044;-87
2022/12/17 22:44:18;;;;;;;62.97;57.90;;;;;;;6.76;100.00;101859.69;5097294;28;20051;-85
2022/12/17 22:46:45;;;;;;;62.67;57.35;;;;;;;7.02;100.00;101849.13;5097496;28;20109;-87
2022/12/17 22:49:13;;;;;;;64.75;59.67;;;;;;;6.72;100.00;101853.03;5097890;28;20052;-85
2022/12/17 22:51:41;;;;;;;71.22;65.78;;;;;;;6.65;100.00;101866.03;5098061;28;20082;-85
2022/12/17 22:54:11;;;;;;;62.42;57.50;;;;;;;6.84;100.00;101852.66;5098197;28;20062;-85
2022/12/17 22:56:41;;;;;;;68.85;62.55;;;;;;;7.07;100.00;101847.69;5097293;28;20469;-85
2022/12/17 22:59:08;;;;;;;66.95;61.38;;;;;;;6.94;100.00;101847.28;5097478;28;20055;-84
2022/12/17 23:01:35;;;;;;;65.93;60.42;;;;;;;6.92;100.00;101854.50;5097611;28;20107;-84
2022/12/17 23:04:03;;;;;;;65.65;60.10;;;;;;;6.97;100.00;101854.06;5097229;28;20052;-87
2022/12/17 23:06:31;;;;;;;73.22;67.10;;;;;;;6.62;100.00;101861.88;5097346;28;20131;-84
2022/12/17 23:08:58;;;;;;;68.63;62.63;;;;;;;6.60;100.00;101863.03;5096856;28;20051;-87
2022/12/17 23:11:27;;;;;;;64.90;59.63;;;;;;;6.65;100.00;101873.94;5097375;28;20131;-85
2022/12/17 23:13:55;;;;;;;67.72;62.17;;;;;;;6.84;100.00;101878.25;5097136;28;20113;-84
2022/12/17 23:16:22;;;;;;;63.95;58.55;;;;;;;6.61;100.00;101888.44;5097497;28;20056;-83
2022/12/17 23:18:51;;;;;;;70.63;65.18;;;;;;;6.59;100.00;101904.41;5097108;28;20056;-85
2022/12/17 23:21:20;;;;;;;68.70;62.97;;;;;;;6.15;100.00;101906.13;5096823;28;20044;-84
2022/12/17 23:23:48;;;;;;;65.82;60.55;;;;;;;6.24;100.00;101915.78;5096579;28;20048;-85
2022/12/17 23:26:18;;;;;;;66.00;60.80;;;;;;;6.27;100.00;101918.13;5096403;28;20541;-87
2022/12/17 23:28:45;;;;;;;63.80;58.35;;;;;;;6.62;100.00;101919.13;5096523;28;20099;-85
2022/12/17 23:31:14;;;;;;;68.25;62.58;;;;;;;6.13;100.00;101924.72;5096665;28;20040;-87
2022/12/17 23:33:42;;;;;;;67.75;62.53;;;;;;;6.43;100.00;101928.84;5096555;28;20052;-88
2022/12/17 23:36:12;;;;;;;64.47;58.92;;;;;;;6.26;100.00;101926.16;5096290;28;20105;-84
2022/12/17 23:38:39;;;;;;;61.45;56.35;;;;;;;6.15;100.00;101928.03;5096481;28;20051;-85
2022/12/17 23:41:09;;;;;;;64.18;58.90;;;;;;;6.10;100.00;101937.38;5096436;28;20105;-84
2022/12/17 23:43:37;;;;;;;66.20;60.63;;;;;;;6.02;100.00;101939.91;5096689;28;20450;-84
2022/12/17 23:46:04;;;;;;;63.63;58.40;;;;;;;6.11;100.00;101942.50;5096718;28;20055;-84
2022/12/17 23:48:33;;;;;;;64.47;59.35;;;;;;;6.49;100.00;101958.25;5095958;28;20465;-84
2022/12/17 23:51:00;;;;;;;59.45;54.58;;;;;;;6.24;100.00;101955.34;5096417;28;20195;-84
2022/12/17 23:53:28;;;;;;;68.10;62.10;;;;;;;6.37;100.00;101962.91;5096156;28;20060;-84
2022/12/17 23:55:55;;;;;;;68.20;62.55;;;;;;;6.45;100.00;101960.38;5096440;28;20101;-85
2022/12/17 23:58:23;;;;;;;72.28;66.28;;;;;;;5.93;100.00;101958.28;5095833;28;20472;-87
